Observation data for Denver City on 06/20/2019      Previous  Date  Next       Current Mesonet Observations  Soil Data  Daily Summary Page  Observations in Plain Language
KDVS 200500Z 24009KT 25/04 A2986 RMK A01 T02490039  RH  026%=      5-min Rain = 0
KDVS 200505Z 24009KT 25/04 A2986 RMK A01 T02470036  RH  026%=      5-min Rain = 0
KDVS 200510Z 24009KT 25/04 A2986 RMK A01 T02470036  RH  026%=      5-min Rain = 0
KDVS 200515Z 24009KT 25/04 A2986 RMK A01 T02450037  RH  026%=      5-min Rain = 0
KDVS 200520Z 24009KT 24/04 A2986 RMK A01 T02430035  RH  026%=      5-min Rain = 0
KDVS 200525Z 24009KT 24/03 A2986 RMK A01 T02420033  RH  026%=      5-min Rain = 0
KDVS 200530Z 25010KT 24/03 A2986 RMK A01 T02410030  RH  026%=      5-min Rain = 0
KDVS 200535Z 25010KT 24/03 A2986 RMK A01 T02410028  RH  025%=      5-min Rain = 0
KDVS 200540Z 25011KT 24/03 A2986 RMK A01 T02410026  RH  025%=      5-min Rain = 0
KDVS 200545Z 25011KT 24/02 A2986 RMK A01 T02420022  RH  024%=      5-min Rain = 0
KDVS 200550Z 25011KT 24/02 A2986 RMK A01 T02420020  RH  024%=      5-min Rain = 0
KDVS 200555Z 25012KT 24/02 A2986 RMK A01 T02410019  RH  024%=      5-min Rain = 0
KDVS 200600Z 25012KT 24/02 A2986 RMK A01 T02420015  RH  023%=      5-min Rain = 0
KDVS 200605Z 25011KT 24/01 A2986 RMK A01 T02430013  RH  022%=      5-min Rain = 0
KDVS 200610Z 25011KT 24/01 A2986 RMK A01 T02410012  RH  023%=      5-min Rain = 0
KDVS 200615Z 25011KT 24/01 A2986 RMK A01 T02400012  RH  023%=      5-min Rain = 0
KDVS 200620Z 26010KT 24/01 A2986 RMK A01 T02370013  RH  023%=      5-min Rain = 0
KDVS 200625Z 26010KT 24/01 A2986 RMK A01 T02350011  RH  023%=      5-min Rain = 0
KDVS 200630Z 26010KT 23/01 A2986 RMK A01 T02340009  RH  023%=      5-min Rain = 0
KDVS 200635Z 26010KT 23/01 A2986 RMK A01 T02330008  RH  023%=      5-min Rain = 0
KDVS 200640Z 26009KT 23/01 A2986 RMK A01 T02310009  RH  023%=      5-min Rain = 0
KDVS 200645Z 26009KT 23/01 A2986 RMK A01 T02290008  RH  023%=      5-min Rain = 0
KDVS 200650Z 26009KT 23/01 A2986 RMK A01 T02280006  RH  023%=      5-min Rain = 0
KDVS 200655Z 26009KT 23/01 A2986 RMK A01 T02260006  RH  024%=      5-min Rain = 0
KDVS 200700Z 26009KT 23/01 A2986 RMK A01 T02250006  RH  024%=      5-min Rain = 0
KDVS 200705Z 26009KT 22/01 A2986 RMK A01 T02230006  RH  024%=      5-min Rain = 0
KDVS 200710Z 26009KT 22/00 A2986 RMK A01 T02220003  RH  024%=      5-min Rain = 0
KDVS 200715Z 26009KT 22/M00 A2986 RMK A01 T02221001  RH  023%=      5-min Rain = 0
KDVS 200720Z 27010KT 22/M01 A2985 RMK A01 T02231007  RH  022%=      5-min Rain = 0
KDVS 200725Z 27010KT 22/M01 A2985 RMK A01 T02231009  RH  021%=      5-min Rain = 0
KDVS 200730Z 27010KT 22/M01 A2985 RMK A01 T02211012  RH  021%=      5-min Rain = 0
KDVS 200735Z 28011KT 22/M02 A2985 RMK A01 T02211020  RH  020%=      5-min Rain = 0
KDVS 200740Z 27011KT 23/M03 A2985 RMK A01 T02261028  RH  018%=      5-min Rain = 0
KDVS 200745Z 28011KT 23/M03 A2985 RMK A01 T02271028  RH  018%=      5-min Rain = 0
KDVS 200750Z 28010KT 22/M02 A2985 RMK A01 T02241024  RH  019%=      5-min Rain = 0
KDVS 200755Z 28010KT 22/M02 A2985 RMK A01 T02201022  RH  020%=      5-min Rain = 0
KDVS 200800Z 28010KT 22/M02 A2985 RMK A01 T02181023  RH  020%=      5-min Rain = 0
KDVS 200805Z 28010KT 22/M03 A2985 RMK A01 T02211027  RH  019%=      5-min Rain = 0
KDVS 200810Z 29009KT 22/M02 A2985 RMK A01 T02201024  RH  020%=      5-min Rain = 0
KDVS 200815Z 29009KT 22/M02 A2985 RMK A01 T02161020  RH  021%=      5-min Rain = 0
KDVS 200820Z 29009KT 21/M02 A2985 RMK A01 T02111016  RH  022%=      5-min Rain = 0
KDVS 200825Z 29009KT 21/M02 A2985 RMK A01 T02081016  RH  022%=      5-min Rain = 0
KDVS 200830Z 29009KT 21/M01 A2985 RMK A01 T02061012  RH  023%=      5-min Rain = 0
KDVS 200835Z 29009KT 20/M01 A2985 RMK A01 T02041011  RH  024%=      5-min Rain = 0
KDVS 200840Z 29010KT 20/M01 A2984 RMK A01 T02031010  RH  024%=      5-min Rain = 0
KDVS 200845Z 29009KT 20/M01 A2984 RMK A01 T02031012  RH  024%=      5-min Rain = 0
KDVS 200850Z 29009KT 20/M01 A2984 RMK A01 T02031013  RH  023%=      5-min Rain = 0
KDVS 200855Z 29009KT 20/M01 A2984 RMK A01 T02021013  RH  024%=      5-min Rain = 0
KDVS 200900Z 29009KT 20/M01 A2984 RMK A01 T01991011  RH  025%=      5-min Rain = 0
KDVS 200905Z 29009KT 20/M01 A2984 RMK A01 T01971011  RH  025%=      5-min Rain = 0
KDVS 200910Z 28009KT 20/M01 A2984 RMK A01 T01961011  RH  025%=      5-min Rain = 0
KDVS 200915Z 28008KT 19/M01 A2984 RMK A01 T01941009  RH  026%=      5-min Rain = 0
KDVS 200920Z 28008KT 19/M01 A2984 RMK A01 T01921009  RH  026%=      5-min Rain = 0
KDVS 200925Z 28010KT 19/M01 A2984 RMK A01 T01911008  RH  026%=      5-min Rain = 0
KDVS 200930Z 29010KT 19/M01 A2984 RMK A01 T01901008  RH  027%=      5-min Rain = 0
KDVS 200935Z 29010KT 19/M01 A2984 RMK A01 T01891011  RH  026%=      5-min Rain = 0
KDVS 200940Z 29010KT 19/M01 A2984 RMK A01 T01911014  RH  025%=      5-min Rain = 0
KDVS 200945Z 29009KT 19/M01 A2984 RMK A01 T01911013  RH  025%=      5-min Rain = 0
KDVS 200950Z 29009KT 19/M01 A2984 RMK A01 T01891012  RH  026%=      5-min Rain = 0
KDVS 200955Z 29009KT 19/M01 A2984 RMK A01 T01881011  RH  026%=      5-min Rain = 0
KDVS 201000Z 29010KT 19/M01 A2984 RMK A01 T01881011  RH  026%=      5-min Rain = 0
KDVS 201005Z 29010KT 19/M01 A2984 RMK A01 T01891012  RH  026%=      5-min Rain = 0
KDVS 201010Z 28009KT 19/M01 A2984 RMK A01 T01891013  RH  026%=      5-min Rain = 0
KDVS 201015Z 27007KT 19/M01 A2984 RMK A01 T01881011  RH  026%=      5-min Rain = 0
KDVS 201020Z 26005KT 19/M01 A2984 RMK A01 T01861006  RH  028%=      5-min Rain = 0
KDVS 201025Z 25004KT 18/00 A2985 RMK A01 T01800003  RH  031%=      5-min Rain = 0
KDVS 201030Z 26005KT 18/01 A2985 RMK A01 T01760005  RH  032%=      5-min Rain = 0
KDVS 201035Z 26004KT 17/01 A2985 RMK A01 T01740010  RH  034%=      5-min Rain = 0
KDVS 201040Z 27005KT 17/02 A2984 RMK A01 T01720015  RH  035%=      5-min Rain = 0
KDVS 201045Z 25006KT 17/02 A2985 RMK A01 T01700022  RH  038%=      5-min Rain = 0
KDVS 201050Z 25006KT 17/02 A2985 RMK A01 T01680024  RH  039%=      5-min Rain = 0
KDVS 201055Z 25006KT 17/01 A2984 RMK A01 T01720012  RH  034%=      5-min Rain = 0
KDVS 201100Z 24005KT 18/02 A2985 RMK A01 T01750022  RH  036%=      5-min Rain = 0
KDVS 201105Z 24003KT 17/04 A2985 RMK A01 T01720038  RH  042%=      5-min Rain = 0
KDVS 201110Z 12002KT 16/06 A2985 RMK A01 T01580057  RH  052%=      5-min Rain = 0
KDVS 201115Z 13002KT 15/06 A2985 RMK A01 T01450056  RH  057%=      5-min Rain = 0
KDVS 201120Z 01005KT 14/05 A2986 RMK A01 T01400049  RH  055%=      5-min Rain = 0
KDVS 201125Z 28003KT 16/02 A2986 RMK A01 T01550017  RH  040%=      5-min Rain = 0
KDVS 201130Z 03004KT 16/04 A2986 RMK A01 T01560039  RH  047%=      5-min Rain = 0
KDVS 201135Z 30003KT 15/02 A2986 RMK A01 T01530020  RH  041%=      5-min Rain = 0
KDVS 201140Z 34003KT 16/01 A2986 RMK A01 T01610012  RH  037%=      5-min Rain = 0
KDVS 201145Z 34002KT 17/01 A2986 RMK A01 T01650006  RH  035%=      5-min Rain = 0
KDVS 201150Z 31003KT 17/00 A2986 RMK A01 T01680003  RH  033%=      5-min Rain = 0
KDVS 201155Z 31002KT 17/02 A2986 RMK A01 T01710020  RH  037%=      5-min Rain = 0
KDVS 201200Z 29003KT 17/01 A2987 RMK A01 T01700014  RH  035%=      5-min Rain = 0
KDVS 201205Z 29004KT 17/02 A2987 RMK A01 T01730018  RH  036%=      5-min Rain = 0
KDVS 201210Z 30003KT 17/05 A2987 RMK A01 T01680048  RH  046%=      5-min Rain = 0
KDVS 201215Z 30004KT 16/05 A2987 RMK A01 T01600045  RH  047%=      5-min Rain = 0
KDVS 201220Z 29005KT 16/05 A2987 RMK A01 T01640045  RH  046%=      5-min Rain = 0
KDVS 201225Z 28007KT 17/02 A2987 RMK A01 T01710020  RH  037%=      5-min Rain = 0
KDVS 201230Z 28007KT 19/00 A2987 RMK A01 T01850001  RH  029%=      5-min Rain = 0
KDVS 201235Z 27005KT 19/00 A2987 RMK A01 T01900002  RH  029%=      5-min Rain = 0
KDVS 201240Z 28004KT 19/01 A2987 RMK A01 T01900009  RH  030%=      5-min Rain = 0
KDVS 201245Z 30004KT 19/01 A2988 RMK A01 T01900014  RH  031%=      5-min Rain = 0
KDVS 201250Z 29005KT 19/02 A2988 RMK A01 T01890020  RH  033%=      5-min Rain = 0
KDVS 201255Z 32004KT 19/03 A2988 RMK A01 T01890029  RH  035%=      5-min Rain = 0
KDVS 201300Z 29004KT 19/02 A2988 RMK A01 T01900023  RH  033%=      5-min Rain = 0
KDVS 201305Z 30003KT 19/03 A2988 RMK A01 T01940025  RH  033%=      5-min Rain = 0
KDVS 201310Z 30003KT 20/03 A2988 RMK A01 T01980025  RH  032%=      5-min Rain = 0
KDVS 201315Z 30003KT 20/03 A2988 RMK A01 T02010026  RH  032%=      5-min Rain = 0
KDVS 201320Z 32004KT 20/04 A2989 RMK A01 T02030037  RH  034%=      5-min Rain = 0
KDVS 201325Z 32004KT 21/04 A2989 RMK A01 T02050043  RH  035%=      5-min Rain = 0
KDVS 201330Z 32005KT 21/04 A2989 RMK A01 T02100041  RH  034%=      5-min Rain = 0
KDVS 201335Z 32004KT 22/04 A2989 RMK A01 T02160035  RH  031%=      5-min Rain = 0
KDVS 201340Z 31004KT 22/03 A2989 RMK A01 T02200029  RH  029%=      5-min Rain = 0
KDVS 201350Z 31005KT 22/03 A299 RMK A01 T02240033  RH  029%=      5-min Rain = 0
KDVS 201355Z 31005KT 23/03 A2989 RMK A01 T02290031  RH  028%=      5-min Rain = 0
KDVS 201400Z 31005KT 23/03 A2989 RMK A01 T02340031  RH  027%=      5-min Rain = 0
KDVS 201405Z 29004G9KT 24/02 A299 RMK A01 T02400024  RH  025%=      5-min Rain = 0
KDVS 201410Z 23002KT 25/02 A299 RMK A01 T02460022  RH  024%=      5-min Rain = 0
KDVS 201415Z 19004KT 25/03 A299 RMK A01 T02510028  RH  024%=      5-min Rain = 0
KDVS 201420Z 25003KT 25/03 A299 RMK A01 T02510025  RH  023%=      5-min Rain = 0
KDVS 201425Z 27004KT 26/03 A299 RMK A01 T02550027  RH  023%=      5-min Rain = 0
KDVS 201430Z 24004KT 26/03 A299 RMK A01 T02610027  RH  022%=      5-min Rain = 0
KDVS 201435Z 23003KT 27/03 A299 RMK A01 T02680025  RH  021%=      5-min Rain = 0
KDVS 201440Z 21004KT 27/03 A299 RMK A01 T02710030  RH  021%=      5-min Rain = 0
KDVS 201445Z 20005KT 27/04 A299 RMK A01 T02690038  RH  023%=      5-min Rain = 0
KDVS 201450Z 23004KT 27/03 A299 RMK A01 T02710033  RH  022%=      5-min Rain = 0
KDVS 201455Z 22005KT 28/04 A299 RMK A01 T02770040  RH  022%=      5-min Rain = 0
KDVS 201500Z 19006KT 28/05 A299 RMK A01 T02750051  RH  024%=      5-min Rain = 0
KDVS 201505Z 20006KT 28/05 A299 RMK A01 T02760051  RH  024%=      5-min Rain = 0
KDVS 201510Z 21005KT 28/05 A299 RMK A01 T02800047  RH  023%=      5-min Rain = 0
KDVS 201515Z 22005KT 28/04 A299 RMK A01 T02840041  RH  022%=      5-min Rain = 0
KDVS 201520Z 23004KT 29/03 A299 RMK A01 T02900034  RH  020%=      5-min Rain = 0
KDVS 201525Z 24003KT 30/04 A299 RMK A01 T02950035  RH  019%=      5-min Rain = 0
KDVS 201530Z 26003KT 30/03 A299 RMK A01 T02990029  RH  018%=      5-min Rain = 0
KDVS 201535Z 23004KT 30/03 A299 RMK A01 T03030027  RH  018%=      5-min Rain = 0
KDVS 201540Z 21004KT 31/04 A2989 RMK A01 T03050035  RH  018%=      5-min Rain = 0
KDVS 201545Z 21004KT 31/03 A2989 RMK A01 T03050031  RH  018%=      5-min Rain = 0
KDVS 201550Z 25004KT 31/03 A2989 RMK A01 T03080030  RH  017%=      5-min Rain = 0
KDVS 201555Z 23005KT 31/03 A2989 RMK A01 T03110030  RH  017%=      5-min Rain = 0
KDVS 201600Z 23004KT 31/03 A2989 RMK A01 T03140026  RH  016%=      5-min Rain = 0
KDVS 201605Z 22003KT 32/02 A2989 RMK A01 T03180017  RH  015%=      5-min Rain = 0
KDVS 201610Z 24003KT 32/02 A2989 RMK A01 T03200019  RH  015%=      5-min Rain = 0
KDVS 201615Z 22005KT 32/02 A2989 RMK A01 T03210016  RH  015%=      5-min Rain = 0
KDVS 201620Z 19004KT 32/03 A2989 RMK A01 T03210025  RH  016%=      5-min Rain = 0
KDVS 201625Z 20005KT 32/02 A2989 RMK A01 T03220021  RH  015%=      5-min Rain = 0
KDVS 201630Z 20004KT 32/03 A2989 RMK A01 T03230025  RH  015%=      5-min Rain = 0
KDVS 201635Z 18005KT 33/03 A2989 RMK A01 T03250027  RH  015%=      5-min Rain = 0
KDVS 201640Z 18006KT 33/03 A2989 RMK A01 T03270028  RH  015%=      5-min Rain = 0
KDVS 201645Z 18005KT 33/03 A2989 RMK A01 T03300025  RH  015%=      5-min Rain = 0
KDVS 201650Z 19005KT 33/02 A2989 RMK A01 T03300020  RH  014%=      5-min Rain = 0
KDVS 201655Z 18006KT 33/02 A2989 RMK A01 T03320019  RH  014%=      5-min Rain = 0
KDVS 201700Z 18005KT 33/02 A2989 RMK A01 T03340017  RH  014%=      5-min Rain = 0
KDVS 201705Z 20005KT 34/01 A2989 RMK A01 T03350013  RH  013%=      5-min Rain = 0
KDVS 201710Z 17005KT 34/02 A2989 RMK A01 T03380016  RH  013%=      5-min Rain = 0
KDVS 201715Z 18006G11KT 34/02 A2989 RMK A01 T03410016  RH  013%=      5-min Rain = 0
KDVS 201720Z 19007KT 34/01 A2989 RMK A01 T03410008  RH  012%=      5-min Rain = 0
KDVS 201725Z 20005G10KT 34/01 A2989 RMK A01 T03400007  RH  012%=      5-min Rain = 0
KDVS 201730Z 18006KT 34/00 A2989 RMK A01 T03440004  RH  012%=      5-min Rain = 0
KDVS 201735Z 21006KT 35/00 A2989 RMK A01 T03460000  RH  011%=      5-min Rain = 0
KDVS 201740Z 20007G12KT 35/01 A2989 RMK A01 T03470005  RH  012%=      5-min Rain = 0
KDVS 201745Z 20008KT 35/01 A2989 RMK A01 T03510007  RH  012%=      5-min Rain = 0
KDVS 201750Z 20006KT 35/00 A2988 RMK A01 T03480002  RH  011%=      5-min Rain = 0
KDVS 201755Z 21007KT 35/01 A2988 RMK A01 T03490006  RH  012%=      5-min Rain = 0
KDVS 201800Z 23007KT 35/M00 A2988 RMK A01 T03491002  RH  011%=      5-min Rain = 0
KDVS 201805Z 21008KT 35/00 A2988 RMK A01 T03510004  RH  011%=      5-min Rain = 0
KDVS 201810Z 19004KT 35/00 A2988 RMK A01 T03510004  RH  011%=      5-min Rain = 0
KDVS 201815Z 19009KT 35/00 A2988 RMK A01 T03540003  RH  011%=      5-min Rain = 0
KDVS 201820Z 19008KT 36/M00 A2988 RMK A01 T03551003  RH  010%=      5-min Rain = 0
KDVS 201825Z 18008G13KT 36/01 A2988 RMK A01 T03570007  RH  011%=      5-min Rain = 0
KDVS 201830Z 20010KT 36/00 A2987 RMK A01 T03580000  RH  011%=      5-min Rain = 0
KDVS 201835Z 18009KT 36/M00 A2987 RMK A01 T03581001  RH  010%=      5-min Rain = 0
KDVS 201840Z 21010G16KT 36/M01 A2987 RMK A01 T03601007  RH  010%=      5-min Rain = 0
KDVS 201845Z 20010G17KT 36/M01 A2987 RMK A01 T03591014  RH  009%=      5-min Rain = 0
KDVS 201850Z 22010KT 36/M02 A2987 RMK A01 T03611018  RH  009%=      5-min Rain = 0
KDVS 201855Z 22008G14KT 36/M02 A2987 RMK A01 T03591021  RH  009%=      5-min Rain = 0
KDVS 201900Z 22007G14KT 36/M02 A2986 RMK A01 T03611019  RH  009%=      5-min Rain = 0
KDVS 201905Z 20013G19KT 36/M02 A2986 RMK A01 T03631022  RH  009%=      5-min Rain = 0
KDVS 201910Z 24014G20KT 36/M03 A2986 RMK A01 T03641032  RH  008%=      5-min Rain = 0
KDVS 201915Z 22012KT 37/M03 A2986 RMK A01 T03651032  RH  008%=      5-min Rain = 0
KDVS 201920Z 23013KT 37/M04 A2986 RMK A01 T03651036  RH  008%=      5-min Rain = 0
KDVS 201925Z 23013G18KT 37/M04 A2986 RMK A01 T03651039  RH  008%=      5-min Rain = 0
KDVS 201930Z 25011G18KT 36/M04 A2986 RMK A01 T03641035  RH  008%=      5-min Rain = 0
KDVS 201935Z 26009G15KT 37/M03 A2986 RMK A01 T03661026  RH  008%=      5-min Rain = 0
KDVS 201940Z 23013G18KT 37/M03 A2986 RMK A01 T03681026  RH  008%=      5-min Rain = 0
KDVS 201945Z 22011G17KT 37/M03 A2986 RMK A01 T03661031  RH  008%=      5-min Rain = 0
KDVS 201950Z 24010G16KT 37/M03 A2985 RMK A01 T03661030  RH  008%=      5-min Rain = 0
KDVS 201955Z 25010G16KT 37/M03 A2985 RMK A01 T03671029  RH  008%=      5-min Rain = 0
KDVS 202000Z 22011G23KT 37/M02 A2985 RMK A01 T03681023  RH  008%=      5-min Rain = 0
KDVS 202005Z 22012G18KT 37/M02 A2985 RMK A01 T03691024  RH  008%=      5-min Rain = 0
KDVS 202010Z 26011KT 37/M03 A2985 RMK A01 T03711028  RH  008%=      5-min Rain = 0
KDVS 202015Z 26011KT 37/M03 A2984 RMK A01 T03701032  RH  008%=      5-min Rain = 0
KDVS 202020Z 24013G21KT 37/M04 A2984 RMK A01 T03711036  RH  007%=      5-min Rain = 0
KDVS 202025Z 23009G17KT 37/M03 A2984 RMK A01 T03701028  RH  008%=      5-min Rain = 0
KDVS 202030Z 22008G15KT 37/M02 A2984 RMK A01 T03731024  RH  008%=      5-min Rain = 0
KDVS 202035Z 25008G13KT 37/M03 A2984 RMK A01 T03721029  RH  008%=      5-min Rain = 0
KDVS 202040Z 25013G20KT 37/M04 A2984 RMK A01 T03741041  RH  007%=      5-min Rain = 0
KDVS 202045Z 25008G14KT 37/M04 A2983 RMK A01 T03691039  RH  007%=      5-min Rain = 0
KDVS 202050Z 20009KT 37/M03 A2983 RMK A01 T03691030  RH  008%=      5-min Rain = 0
KDVS 202055Z 24012G18KT 37/M03 A2983 RMK A01 T03711034  RH  008%=      5-min Rain = 0
KDVS 202100Z 24012G17KT 37/M04 A2983 RMK A01 T03701037  RH  007%=      5-min Rain = 0
KDVS 202105Z 24011G16KT 37/M04 A2983 RMK A01 T03681038  RH  007%=      5-min Rain = 0
KDVS 202110Z 24015G21KT 37/M04 A2983 RMK A01 T03711037  RH  007%=      5-min Rain = 0
KDVS 202115Z 24012KT 37/M04 A2983 RMK A01 T03711037  RH  007%=      5-min Rain = 0
KDVS 202120Z 24008KT 37/M04 A2982 RMK A01 T03701036  RH  008%=      5-min Rain = 0
KDVS 202125Z 20016G21KT 37/M03 A2982 RMK A01 T03731034  RH  008%=      5-min Rain = 0
KDVS 202130Z 20015G24KT 37/M04 A2982 RMK A01 T03661042  RH  007%=      5-min Rain = 0
KDVS 202135Z 22012G20KT 37/M04 A2982 RMK A01 T03701042  RH  007%=      5-min Rain = 0
KDVS 202140Z 22012G17KT 37/M05 A2982 RMK A01 T03711046  RH  007%=      5-min Rain = 0
KDVS 202145Z 22013KT 37/M04 A2982 RMK A01 T03701044  RH  007%=      5-min Rain = 0
KDVS 202150Z 24014G20KT 37/M04 A2981 RMK A01 T03721044  RH  007%=      5-min Rain = 0
KDVS 202155Z 23014G20KT 37/M04 A2981 RMK A01 T03721040  RH  007%=      5-min Rain = 0
KDVS 202200Z 24014KT 37/M04 A2981 RMK A01 T03671043  RH  007%=      5-min Rain = 0
KDVS 202205Z 22010KT 36/M04 A2981 RMK A01 T03611043  RH  007%=      5-min Rain = 0
KDVS 202210Z 23009KT 36/M03 A2981 RMK A01 T03631034  RH  008%=      5-min Rain = 0
KDVS 202215Z 23011G17KT 37/M03 A2981 RMK A01 T03701031  RH  008%=      5-min Rain = 0
KDVS 202220Z 23015G20KT 37/M05 A2981 RMK A01 T03711047  RH  007%=      5-min Rain = 0
KDVS 202225Z 22018G24KT 37/M05 A2981 RMK A01 T03701052  RH  007%=      5-min Rain = 0
KDVS 202230Z 21016G21KT 37/M05 A2981 RMK A01 T03691051  RH  007%=      5-min Rain = 0
KDVS 202235Z 20014G19KT 37/M05 A2981 RMK A01 T03671047  RH  007%=      5-min Rain = 0
KDVS 202240Z 23017G23KT 37/M06 A2981 RMK A01 T03681058  RH  006%=      5-min Rain = 0
KDVS 202245Z 24013G18KT 37/M06 A2981 RMK A01 T03691055  RH  007%=      5-min Rain = 0
KDVS 202250Z 22013G19KT 37/M05 A2981 RMK A01 T03671053  RH  007%=      5-min Rain = 0
KDVS 202255Z 24009G15KT 37/M05 A298 RMK A01 T03671047  RH  007%=      5-min Rain = 0
KDVS 202300Z 23015G20KT 37/M05 A298 RMK A01 T03691047  RH  007%=      5-min Rain = 0
KDVS 202305Z 24014G19KT 37/M05 A298 RMK A01 T03691050  RH  007%=      5-min Rain = 0
KDVS 202310Z 24013G18KT 37/M05 A298 RMK A01 T03671052  RH  007%=      5-min Rain = 0
KDVS 202315Z 23012G18KT 37/M05 A298 RMK A01 T03661052  RH  007%=      5-min Rain = 0
KDVS 202320Z 25014KT 37/M06 A2979 RMK A01 T03671055  RH  007%=      5-min Rain = 0
KDVS 202325Z 25014G19KT 37/M06 A2979 RMK A01 T03671055  RH  007%=      5-min Rain = 0
KDVS 202330Z 24014G19KT 37/M06 A2979 RMK A01 T03661056  RH  007%=      5-min Rain = 0
KDVS 202335Z 24014G21KT 37/M06 A2979 RMK A01 T03651059  RH  006%=      5-min Rain = 0
KDVS 202340Z 23013KT 37/M06 A2979 RMK A01 T03651056  RH  007%=      5-min Rain = 0
KDVS 202345Z 24013KT 36/M06 A2979 RMK A01 T03631058  RH  007%=      5-min Rain = 0
KDVS 202350Z 23011KT 36/M06 A2979 RMK A01 T03631060  RH  006%=      5-min Rain = 0
KDVS 202355Z 22013G18KT 36/M06 A2978 RMK A01 T03621060  RH  006%=      5-min Rain = 0
KDVS 210000Z 22010G16KT 36/M06 A2978 RMK A01 T03621058  RH  007%=      5-min Rain = 0
KDVS 210005Z 22010G16KT 36/M06 A2978 RMK A01 T03621057  RH  007%=      5-min Rain = 0
KDVS 210010Z 23014G19KT 36/M06 A2978 RMK A01 T03621056  RH  007%=      5-min Rain = 0
KDVS 210015Z 23017G22KT 36/M07 A2978 RMK A01 T03601065  RH  006%=      5-min Rain = 0
KDVS 210020Z 24017G22KT 36/M07 A2978 RMK A01 T03591073  RH  006%=      5-min Rain = 0
KDVS 210025Z 24016KT 36/M07 A2978 RMK A01 T03581069  RH  006%=      5-min Rain = 0
KDVS 210030Z 23015KT 36/M07 A2978 RMK A01 T03571073  RH  006%=      5-min Rain = 0
KDVS 210035Z 23016KT 36/M07 A2978 RMK A01 T03561074  RH  006%=      5-min Rain = 0
KDVS 210040Z 23014KT 35/M07 A2978 RMK A01 T03541072  RH  006%=      5-min Rain = 0
KDVS 210045Z 22013G18KT 35/M07 A2978 RMK A01 T03531066  RH  007%=      5-min Rain = 0
KDVS 210050Z 23013KT 35/M07 A2979 RMK A01 T03511065  RH  007%=      5-min Rain = 0
KDVS 210055Z 23011KT 35/M06 A2978 RMK A01 T03491055  RH  007%=      5-min Rain = 0
KDVS 210100Z 22011KT 35/M06 A2978 RMK A01 T03471055  RH  007%=      5-min Rain = 0
KDVS 210105Z 23010KT 35/M05 A2979 RMK A01 T03451054  RH  007%=      5-min Rain = 0
KDVS 210110Z 23010KT 34/M06 A2979 RMK A01 T03431055  RH  008%=      5-min Rain = 0
KDVS 210115Z 23009KT 34/M05 A2979 RMK A01 T03401051  RH  008%=      5-min Rain = 0
KDVS 210120Z 22009KT 34/M05 A2979 RMK A01 T03371046  RH  008%=      5-min Rain = 0
KDVS 210125Z 22009KT 33/M04 A2979 RMK A01 T03331041  RH  009%=      5-min Rain = 0
KDVS 210130Z 22008KT 33/M04 A2979 RMK A01 T03291039  RH  009%=      5-min Rain = 0
KDVS 210135Z 21007KT 32/M03 A2979 RMK A01 T03231030  RH  010%=      5-min Rain = 0
KDVS 210140Z 21008KT 32/M03 A2979 RMK A01 T03161029  RH  011%=      5-min Rain = 0
KDVS 210145Z 21008KT 31/M03 A2979 RMK A01 T03121031  RH  011%=      5-min Rain = 0
KDVS 210150Z 21007KT 31/M02 A2979 RMK A01 T03051024  RH  012%=      5-min Rain = 0
KDVS 210155Z 21008KT 30/M02 A2979 RMK A01 T02981022  RH  013%=      5-min Rain = 0
KDVS 210200Z 21008KT 29/M02 A298 RMK A01 T02941024  RH  013%=      5-min Rain = 0
KDVS 210205Z 21008KT 29/M02 A298 RMK A01 T02891024  RH  013%=      5-min Rain = 0
KDVS 210210Z 21008KT 29/M03 A298 RMK A01 T02861026  RH  013%=      5-min Rain = 0
KDVS 210215Z 21007KT 28/M03 A298 RMK A01 T02831026  RH  013%=      5-min Rain = 0
KDVS 210220Z 21007KT 28/M02 A298 RMK A01 T02781023  RH  014%=      5-min Rain = 0
KDVS 210225Z 21007KT 27/M02 A298 RMK A01 T02741020  RH  015%=      5-min Rain = 0
KDVS 210230Z 22007KT 27/M01 A298 RMK A01 T02691011  RH  016%=      5-min Rain = 0
KDVS 210235Z 21007KT 27/M01 A298 RMK A01 T02651008  RH  017%=      5-min Rain = 0
KDVS 210240Z 21007KT 26/M01 A298 RMK A01 T02621006  RH  017%=      5-min Rain = 0
KDVS 210245Z 21007KT 26/M00 A2981 RMK A01 T02581003  RH  018%=      5-min Rain = 0
KDVS 210250Z 20007KT 25/00 A2981 RMK A01 T02530002  RH  019%=      5-min Rain = 0
KDVS 210255Z 20007KT 25/01 A2981 RMK A01 T02480006  RH  021%=      5-min Rain = 0
KDVS 210300Z 20008KT 25/01 A2981 RMK A01 T02460005  RH  021%=      5-min Rain = 0
KDVS 210305Z 21007KT 25/00 A2981 RMK A01 T02450002  RH  020%=      5-min Rain = 0
KDVS 210310Z 21007KT 24/01 A2981 RMK A01 T02430005  RH  021%=      5-min Rain = 0
KDVS 210315Z 21007KT 24/01 A2982 RMK A01 T02400008  RH  022%=      5-min Rain = 0
KDVS 210320Z 22006KT 24/01 A2982 RMK A01 T02360014  RH  023%=      5-min Rain = 0
KDVS 210325Z 23006KT 23/02 A2982 RMK A01 T02340015  RH  024%=      5-min Rain = 0
KDVS 210330Z 22006KT 23/01 A2982 RMK A01 T02320013  RH  024%=      5-min Rain = 0
KDVS 210335Z 22007KT 23/02 A2983 RMK A01 T02300015  RH  025%=      5-min Rain = 0
KDVS 210340Z 21007KT 23/02 A2983 RMK A01 T02280017  RH  025%=      5-min Rain = 0
KDVS 210345Z 21007KT 23/02 A2983 RMK A01 T02270019  RH  026%=      5-min Rain = 0
KDVS 210350Z 21007KT 23/02 A2983 RMK A01 T02250020  RH  026%=      5-min Rain = 0
KDVS 210355Z 20008KT 22/02 A2983 RMK A01 T02230020  RH  027%=      5-min Rain = 0
KDVS 210400Z 20008KT 22/02 A2983 RMK A01 T02210021  RH  027%=      5-min Rain = 0
KDVS 210405Z 20008KT 22/02 A2983 RMK A01 T02200023  RH  028%=      5-min Rain = 0
KDVS 210410Z 21008KT 22/03 A2983 RMK A01 T02170025  RH  029%=      5-min Rain = 0
KDVS 210415Z 21008KT 22/03 A2983 RMK A01 T02160027  RH  029%=      5-min Rain = 0
KDVS 210420Z 21008KT 22/02 A2983 RMK A01 T02150024  RH  029%=      5-min Rain = 0
KDVS 210425Z 21008KT 22/02 A2983 RMK A01 T02170017  RH  027%=      5-min Rain = 0
KDVS 210430Z 21008KT 22/01 A2983 RMK A01 T02200012  RH  026%=      5-min Rain = 0
KDVS 210435Z 22008KT 22/01 A2983 RMK A01 T02220007  RH  024%=      5-min Rain = 0
KDVS 210440Z 22009KT 23/M01 A2983 RMK A01 T02261006  RH  022%=      5-min Rain = 0
KDVS 210445Z 22010KT 23/M01 A2983 RMK A01 T02321013  RH  020%=      5-min Rain = 0
KDVS 210450Z 22009KT 23/M02 A2983 RMK A01 T02331018  RH  019%=      5-min Rain = 0
KDVS 210455Z 22010KT 24/M02 A2984 RMK A01 T02351023  RH  018%=      5-min Rain = 0

Page generated in 0.0433 seconds.